Time;durP1;ratioP1;P1;durP2;ratioP2;P2;SDS_P1;SDS_P2;PMS_P1;PMS_P2;Temp;Humidity;BMP_temperature;BMP_pressure;BME280_temperature;BME280_humidity;BME280_pressure;Samples;Min_cycle;Max_cycle;Signal;HPM_P1;HPM_P2
2023/08/26 00:02:26;;;;;;;10.50;6.80;;;;;;;21.63;99.95;98598.88;272481;1267;22525;-87
2023/08/26 00:08:40;;;;;;;12.90;6.80;;;;;;;21.59;100.00;98583.46;273117;1267;22576;-87
2023/08/26 00:14:47;;;;;;;9.30;6.80;;;;;;;21.60;100.00;98562.73;273078;1268;23427;-90
2023/08/26 00:21:14;;;;;;;15.10;6.70;;;;;;;21.59;100.00;98561.41;273574;1267;22194;-86
2023/08/26 00:27:57;;;;;;;8.90;6.90;;;;;;;21.40;100.00;98562.78;273473;1267;22495;-87
2023/08/26 00:34:11;;;;;;;7.60;6.60;;;;;;;21.27;100.00;98564.48;273329;1267;22210;-86
2023/08/26 00:40:20;;;;;;;10.10;6.60;;;;;;;21.13;100.00;98567.77;273203;1266;22860;-88
2023/08/26 00:46:25;;;;;;;10.40;6.50;;;;;;;21.10;100.00;98569.73;273589;1261;22607;-88
2023/08/26 00:52:30;;;;;;;10.20;6.70;;;;;;;21.05;100.00;98566.48;273312;1266;22531;-89
2023/08/26 00:58:44;;;;;;;8.80;7.10;;;;;;;21.01;100.00;98557.39;272770;1267;22243;-87
2023/08/26 01:04:51;;;;;;;10.60;7.50;;;;;;;20.94;100.00;98551.15;273806;1267;22178;-87
2023/08/26 01:11:07;;;;;;;8.30;6.10;;;;;;;20.87;100.00;98549.95;273318;1267;23238;-87
2023/08/26 01:17:09;;;;;;;11.80;7.30;;;;;;;20.80;100.00;98555.77;272676;1263;22493;-87
2023/08/26 01:23:17;;;;;;;12.00;5.80;;;;;;;20.71;100.00;98563.42;272895;1267;22993;-88
2023/08/26 01:29:20;;;;;;;11.80;7.00;;;;;;;20.55;100.00;98565.98;272585;1267;22563;-87
2023/08/26 01:35:35;;;;;;;9.60;6.40;;;;;;;20.42;100.00;98564.46;272603;1267;22407;-87
2023/08/26 01:41:38;;;;;;;9.70;6.70;;;;;;;20.38;100.00;98561.35;272260;1267;22528;-86
2023/08/26 01:47:41;;;;;;;10.10;6.50;;;;;;;20.23;100.00;98568.87;272531;1267;22581;-87
2023/08/26 01:53:43;;;;;;;8.10;7.10;;;;;;;20.07;100.00;98562.55;272812;1267;22629;-86
2023/08/26 01:59:45;;;;;;;10.70;8.00;;;;;;;19.96;100.00;98558.16;272754;1267;22719;-87
2023/08/26 02:05:56;;;;;;;12.20;7.90;;;;;;;19.90;100.00;98547.79;272827;1267;22554;-88
2023/08/26 02:12:03;;;;;;;14.40;8.80;;;;;;;19.87;100.00;98543.14;272744;1267;22577;-87
2023/08/26 02:18:05;;;;;;;11.10;8.00;;;;;;;19.85;100.00;98545.61;273013;1267;22550;-88
2023/08/26 02:24:13;;;;;;;13.70;8.30;;;;;;;19.71;100.00;98546.40;273478;1267;22508;-89
2023/08/26 02:30:15;;;;;;;11.10;8.40;;;;;;;19.68;100.00;98554.41;273108;1269;22537;-87
2023/08/26 02:36:20;;;;;;;15.40;8.50;;;;;;;19.68;100.00;98549.73;272977;1269;22583;-88
2023/08/26 02:42:29;;;;;;;15.30;7.50;;;;;;;19.63;100.00;98559.26;272754;1268;22542;-86
2023/08/26 02:48:44;;;;;;;10.20;7.50;;;;;;;19.51;100.00;98570.98;273655;1268;22573;-88
2023/08/26 02:54:55;;;;;;;10.80;8.80;;;;;;;19.43;100.00;98563.07;274081;1260;25937;-87
2023/08/26 03:01:16;;;;;;;11.40;8.20;;;;;;;19.38;100.00;98564.20;273992;1266;22715;-88
2023/08/26 03:07:27;;;;;;;9.20;7.60;;;;;;;19.30;100.00;98567.05;273147;1267;22980;-88
2023/08/26 03:13:42;;;;;;;10.70;8.50;;;;;;;19.18;100.00;98572.05;274412;1268;22274;-87
2023/08/26 03:19:58;;;;;;;10.90;8.00;;;;;;;19.13;100.00;98570.52;274430;1269;22351;-90
2023/08/26 03:26:33;;;;;;;11.10;7.10;;;;;;;19.13;100.00;98573.39;274635;1251;22463;-87
2023/08/26 03:33:17;;;;;;;9.70;7.90;;;;;;;19.11;100.00;98574.65;274618;1267;22530;-89
2023/08/26 03:39:51;;;;;;;12.70;8.10;;;;;;;19.09;100.00;98575.90;274536;1266;22628;-86
2023/08/26 03:46:07;;;;;;;9.30;7.60;;;;;;;19.06;100.00;98585.88;274143;1267;22544;-90
2023/08/26 03:52:14;;;;;;;9.30;7.60;;;;;;;19.06;100.00;98587.96;273859;1267;24241;-86
2023/08/26 03:58:27;;;;;;;13.60;8.00;;;;;;;19.02;100.00;98592.10;274572;1266;23825;-87
2023/08/26 04:04:36;;;;;;;8.80;7.60;;;;;;;18.95;100.00;98599.99;274686;1267;22541;-87
2023/08/26 04:17:24;;;;;;;12.00;8.20;;;;;;;18.94;100.00;98607.02;272026;1277;22456;-87
2023/08/26 04:37:42;;;;;;;11.10;8.20;;;;;;;18.97;100.00;98620.71;271662;1279;22244;-86
2023/08/26 04:43:59;;;;;;;13.20;8.90;;;;;;;19.01;100.00;98621.70;271608;1280;22574;-86
2023/08/26 04:50:07;;;;;;;11.40;8.30;;;;;;;19.03;100.00;98628.86;271171;1281;22501;-87
2023/08/26 04:56:18;;;;;;;11.80;8.30;;;;;;;19.10;100.00;98634.39;270089;1281;23043;-88
2023/08/26 05:02:20;;;;;;;11.70;8.20;;;;;;;19.25;100.00;98634.40;270341;1280;22572;-87
2023/08/26 05:32:12;;;;;;;9.00;7.10;;;;;;;20.29;100.00;98635.52;271289;1280;22443;-86
2023/08/26 05:38:16;;;;;;;9.60;7.40;;;;;;;20.54;100.00;98635.33;271314;1280;22648;-86
2023/08/26 05:44:21;;;;;;;8.50;7.00;;;;;;;20.77;100.00;98632.52;270519;1281;22522;-88
2023/08/26 05:50:26;;;;;;;9.50;6.90;;;;;;;21.02;100.00;98629.23;270713;1280;22548;-87
2023/08/26 05:56:32;;;;;;;7.40;6.10;;;;;;;21.35;100.00;98632.86;269886;1280;23200;-87
2023/08/26 06:02:38;;;;;;;8.00;6.00;;;;;;;21.85;100.00;98631.17;270692;1281;23015;-87
2023/08/26 06:08:40;;;;;;;9.60;6.10;;;;;;;22.30;100.00;98635.47;271568;1280;22450;-88
2023/08/26 06:14:42;;;;;;;9.50;6.80;;;;;;;22.67;100.00;98635.08;270211;1280;22224;-87
2023/08/26 06:20:44;;;;;;;8.80;6.60;;;;;;;22.85;100.00;98634.99;270806;1284;23544;-88
2023/08/26 06:26:46;;;;;;;7.20;6.00;;;;;;;23.00;100.00;98644.85;270125;1280;25442;-87
2023/08/26 06:32:49;;;;;;;11.30;6.10;;;;;;;23.18;100.00;98656.25;269185;1280;461963;-87
2023/08/26 06:38:52;;;;;;;9.90;7.00;;;;;;;23.47;100.00;98659.58;268872;1280;22889;-88
2023/08/26 06:44:54;;;;;;;10.10;7.40;;;;;;;23.63;100.00;98657.95;269611;1280;25381;-88
2023/08/26 06:50:58;;;;;;;8.60;7.30;;;;;;;23.73;100.00;98665.00;268701;1280;22209;-89
2023/08/26 06:57:02;;;;;;;11.60;7.40;;;;;;;23.82;100.00;98674.62;268957;1281;22589;-89
2023/08/26 07:03:04;;;;;;;12.90;6.80;;;;;;;23.97;100.00;98679.48;270195;1267;23484;-88
2023/08/26 07:09:06;;;;;;;11.00;7.00;;;;;;;24.19;100.00;98682.16;269462;1280;22559;-88
2023/08/26 07:15:08;;;;;;;10.20;7.40;;;;;;;24.47;100.00;98682.34;269028;1280;22172;-87
2023/08/26 07:21:11;;;;;;;11.70;7.50;;;;;;;24.72;100.00;98680.30;269367;1280;23333;-88
2023/08/26 07:27:18;;;;;;;13.50;8.30;;;;;;;24.94;100.00;98681.26;268949;1281;22668;-89
2023/08/26 07:33:21;;;;;;;10.70;7.70;;;;;;;25.15;100.00;98684.38;270211;1280;22273;-88
2023/08/26 07:39:24;;;;;;;12.70;7.70;;;;;;;25.43;100.00;98679.73;271444;1280;22397;-88
2023/08/26 07:45:26;;;;;;;10.30;6.80;;;;;;;25.68;100.00;98680.70;271530;1280;22469;-88
2023/08/26 07:51:27;;;;;;;9.00;6.20;;;;;;;25.91;100.00;98678.45;271486;1280;22386;-88
2023/08/26 07:57:29;;;;;;;10.00;6.30;;;;;;;26.19;100.00;98682.06;271565;1273;22290;-88
2023/08/26 08:03:32;;;;;;;9.20;6.00;;;;;;;26.53;100.00;98682.72;271428;1279;22430;-86
2023/08/26 08:09:33;;;;;;;8.60;5.90;;;;;;;26.82;98.71;98681.13;271505;1281;22419;-86
2023/08/26 08:15:35;;;;;;;8.30;4.90;;;;;;;26.99;95.24;98685.44;271418;1280;22433;-86
2023/08/26 08:21:37;;;;;;;7.00;4.20;;;;;;;27.15;92.66;98686.13;271440;1281;22541;-86
2023/08/26 08:27:39;;;;;;;9.90;4.40;;;;;;;27.36;92.07;98681.79;271432;1280;22742;-86
2023/08/26 08:33:41;;;;;;;5.40;4.60;;;;;;;27.65;90.97;98680.80;271519;1280;22414;-85
2023/08/26 08:39:43;;;;;;;9.30;4.30;;;;;;;27.84;89.60;98681.13;271428;1279;23088;-86
2023/08/26 08:45:45;;;;;;;8.40;3.50;;;;;;;27.91;86.85;98684.02;271227;1280;22196;-86
2023/08/26 08:51:48;;;;;;;8.50;3.90;;;;;;;27.97;85.21;98674.14;271419;1280;23046;-86
2023/08/26 08:57:53;;;;;;;6.90;3.70;;;;;;;28.17;85.07;98665.24;271422;1280;22356;-87
2023/08/26 09:03:56;;;;;;;5.70;3.70;;;;;;;28.35;83.42;98656.20;271311;1280;22210;-87
2023/08/26 09:10:20;;;;;;;9.30;4.00;;;;;;;28.70;82.64;98651.08;271216;1280;22462;-87
2023/08/26 09:16:40;;;;;;;7.80;4.50;;;;;;;29.17;81.14;98654.96;270856;1280;23335;-89
2023/08/26 09:22:45;;;;;;;6.00;4.20;;;;;;;29.46;79.49;98654.48;270914;1280;24246;-90
2023/08/26 09:28:49;;;;;;;4.90;4.10;;;;;;;29.98;77.88;98653.02;270776;1278;22155;-88
2023/08/26 09:35:18;;;;;;;5.70;4.40;;;;;;;30.54;75.30;98654.70;271086;1273;22617;-88
2023/08/26 09:41:31;;;;;;;4.40;4.00;;;;;;;31.26;73.76;98649.92;270589;1280;22411;-89
2023/08/26 09:48:50;;;;;;;6.40;4.00;;;;;;;31.68;70.89;98649.41;270614;1276;22234;-88
2023/08/26 09:54:53;;;;;;;7.90;4.20;;;;;;;31.09;69.62;98646.11;270903;1280;22224;-86
2023/08/26 10:00:56;;;;;;;6.60;4.40;;;;;;;30.49;70.19;98646.19;271404;1280;22370;-89
2023/08/26 10:06:59;;;;;;;6.20;4.30;;;;;;;29.90;70.12;98635.43;271275;1279;23106;-87
2023/08/26 10:13:13;;;;;;;7.90;4.80;;;;;;;29.38;70.69;98633.29;271373;1280;23628;-87
2023/08/26 10:19:20;;;;;;;6.70;4.80;;;;;;;28.88;71.54;98612.80;271021;1280;22432;-90
2023/08/26 10:25:22;;;;;;;6.70;5.50;;;;;;;28.19;73.26;98575.35;270882;1280;23173;-88
2023/08/26 10:31:38;;;;;;;9.00;5.80;;;;;;;27.67;75.62;98567.92;270831;1270;22955;-88
2023/08/26 10:37:40;;;;;;;7.10;5.50;;;;;;;27.17;77.91;98591.80;271282;1279;22224;-87
2023/08/26 10:44:01;;;;;;;11.10;4.80;;;;;;;26.64;80.44;98616.10;270148;1280;22215;-87
2023/08/26 10:50:52;;;;;;;10.40;5.90;;;;;;;26.14;81.76;98620.77;270571;1280;22528;-87
2023/08/26 10:57:15;;;;;;;11.50;6.50;;;;;;;25.81;83.69;98597.79;270909;1280;23175;-86
2023/08/26 11:03:45;;;;;;;;;;;;;;;;;;;;;
2023/08/26 11:10:02;;;;;;;9.00;6.60;;;;;;;25.60;89.29;98662.58;271499;1280;22377;-86
2023/08/26 11:16:04;;;;;;;12.00;6.60;;;;;;;25.32;89.90;98699.80;271050;1280;23271;-87
2023/08/26 11:22:18;;;;;;;9.80;7.60;;;;;;;25.03;91.69;98740.39;270141;1279;22427;-88
2023/08/26 11:29:10;;;;;;;6.90;5.30;;;;;;;24.89;92.42;98751.93;271110;1277;22237;-87
2023/08/26 11:35:12;;;;;;;6.20;4.50;;;;;;;24.56;90.78;98736.17;271459;1280;22781;-90
2023/08/26 11:41:14;;;;;;;16.10;5.10;;;;;;;24.08;91.07;98738.66;271507;1280;23009;-88
2023/08/26 11:47:16;;;;;;;12.30;4.90;;;;;;;23.52;93.34;98730.55;271442;1280;22984;-86
2023/08/26 11:53:24;;;;;;;9.70;5.50;;;;;;;23.08;93.98;98715.62;271390;1280;22220;-84
2023/08/26 11:59:37;;;;;;;8.80;5.20;;;;;;;22.65;97.35;98767.55;270316;1280;22251;-86
2023/08/26 12:05:52;;;;;;;7.70;4.10;;;;;;;22.02;99.98;98889.98;269919;1279;22274;-82
2023/08/26 12:11:54;;;;;;;11.60;4.30;;;;;;;21.60;100.00;98889.80;271515;1270;22516;-86
2023/08/26 12:17:56;;;;;;;8.80;4.30;;;;;;;21.45;100.00;98834.00;270849;1280;22410;-87
2023/08/26 12:24:16;;;;;;;5.30;2.90;;;;;;;21.25;100.00;98828.30;271400;1279;22258;-85
2023/08/26 12:30:19;;;;;;;8.10;3.40;;;;;;;20.97;100.00;98842.95;271337;1280;22496;-85
2023/08/26 12:36:24;;;;;;;6.80;3.10;;;;;;;20.82;100.00;98859.09;271234;1279;23623;-84
2023/08/26 12:42:26;;;;;;;15.50;5.10;;;;;;;20.57;100.00;98883.09;271382;1280;22239;-86
2023/08/26 12:48:31;;;;;;;9.50;5.30;;;;;;;20.45;100.00;98866.39;271350;1280;22400;-88
2023/08/26 12:54:33;;;;;;;12.30;3.10;;;;;;;20.39;100.00;98830.73;270329;1280;22568;-85
2023/08/26 13:00:35;;;;;;;7.00;2.60;;;;;;;20.33;100.00;98821.25;270668;1280;22548;-84
2023/08/26 13:06:37;;;;;;;6.10;2.40;;;;;;;20.26;100.00;98786.05;271198;1280;22216;-86
2023/08/26 13:12:42;;;;;;;5.00;2.50;;;;;;;20.20;100.00;98722.87;271478;1280;22375;-86
2023/08/26 13:18:44;;;;;;;6.50;2.80;;;;;;;20.08;100.00;98678.73;271560;1280;22378;-83
2023/08/26 13:24:46;;;;;;;4.60;2.00;;;;;;;19.99;100.00;98618.17;271346;1280;22418;-87
2023/08/26 13:30:48;;;;;;;5.50;2.10;;;;;;;19.93;100.00;98522.06;271367;1280;22333;-89
2023/08/26 13:36:50;;;;;;;3.30;2.00;;;;;;;19.87;100.00;98544.42;269018;1279;22574;-85
2023/08/26 13:42:53;;;;;;;7.20;2.70;;;;;;;19.84;100.00;98677.45;269870;1280;23554;-86
2023/08/26 13:48:57;;;;;;;6.60;3.10;;;;;;;19.77;100.00;98728.14;271617;1280;23065;-84
2023/08/26 13:54:58;;;;;;;3.80;2.40;;;;;;;19.79;100.00;98776.55;271258;1280;22203;-85
2023/08/26 14:01:00;;;;;;;8.30;3.20;;;;;;;19.98;100.00;98776.15;271420;1280;22311;-87
2023/08/26 14:23:02;;;;;;;2.40;1.80;;;;;;;20.77;100.00;98766.00;269068;1280;22947;-86
2023/08/26 14:29:04;;;;;;;6.40;2.10;;;;;;;20.87;100.00;98759.15;270551;1280;23329;-85
2023/08/26 14:35:06;;;;;;;3.60;1.70;;;;;;;20.90;100.00;98746.04;270894;1277;22563;-84
2023/08/26 14:41:08;;;;;;;4.40;2.00;;;;;;;20.90;100.00;98739.12;268568;1280;25273;-83
2023/08/26 14:47:12;;;;;;;2.80;1.60;;;;;;;20.81;100.00;98747.04;271099;1280;22257;-84
2023/08/26 14:53:14;;;;;;;3.60;2.10;;;;;;;20.76;100.00;98748.10;271438;1280;22754;-85
2023/08/26 14:59:29;;;;;;;9.40;3.60;;;;;;;20.66;100.00;98749.23;271332;1280;22200;-88
2023/08/26 15:05:41;;;;;;;5.00;3.10;;;;;;;20.58;100.00;98750.78;270467;1277;23479;-89
2023/08/26 15:11:52;;;;;;;6.90;3.20;;;;;;;20.52;100.00;98745.16;271495;1279;22362;-85
2023/08/26 15:18:30;;;;;;;5.40;3.00;;;;;;;20.52;100.00;98738.65;271109;1279;23315;-84
2023/08/26 15:25:07;;;;;;;5.60;2.80;;;;;;;20.55;100.00;98713.61;270757;1280;23375;-84
2023/08/26 15:31:23;;;;;;;6.80;3.00;;;;;;;20.54;100.00;98723.11;271221;1280;22455;-84
2023/08/26 15:37:26;;;;;;;4.70;2.70;;;;;;;20.55;100.00;98703.14;271052;1280;25094;-86
2023/08/26 15:43:29;;;;;;;5.20;2.80;;;;;;;20.58;100.00;98686.42;271081;1274;23133;-85
2023/08/26 15:49:31;;;;;;;5.10;2.70;;;;;;;20.62;100.00;98683.81;271165;1280;23482;-84
2023/08/26 15:55:37;;;;;;;4.00;2.30;;;;;;;20.65;100.00;98676.16;271085;1280;23765;-86
2023/08/26 16:01:39;;;;;;;6.20;2.80;;;;;;;20.68;100.00;98669.23;269475;1280;23031;-85
2023/08/26 16:07:44;;;;;;;4.60;2.50;;;;;;;20.70;100.00;98666.70;271041;1280;22277;-84
2023/08/26 16:13:46;;;;;;;3.80;2.30;;;;;;;20.70;100.00;98658.42;271306;1280;23669;-83
2023/08/26 16:19:48;;;;;;;6.50;3.50;;;;;;;20.69;100.00;98643.36;271159;1280;22324;-84
2023/08/26 16:25:50;;;;;;;6.70;3.80;;;;;;;20.69;100.00;98627.17;271051;1280;23298;-87
2023/08/26 16:31:52;;;;;;;6.50;4.30;;;;;;;20.68;100.00;98620.02;271110;1280;22239;-85
2023/08/26 16:37:53;;;;;;;6.40;4.00;;;;;;;20.70;100.00;98617.19;263293;1280;10001591;-85
2023/08/26 16:43:55;;;;;;;6.00;4.00;;;;;;;20.60;100.00;98623.03;271158;1280;22395;-84
2023/08/26 16:49:57;;;;;;;8.10;4.20;;;;;;;20.59;100.00;98623.14;271056;1280;23611;-85
2023/08/26 16:55:59;;;;;;;4.60;3.80;;;;;;;20.62;100.00;98621.05;270966;1280;22251;-85
2023/08/26 17:02:02;;;;;;;4.60;3.30;;;;;;;20.63;100.00;98620.04;271002;1279;22338;-84
2023/08/26 17:08:07;;;;;;;5.30;3.50;;;;;;;20.62;100.00;98611.04;270266;1279;23215;-85
2023/08/26 17:14:09;;;;;;;5.00;3.40;;;;;;;20.55;100.00;98614.98;270659;1279;22377;-85
2023/08/26 17:20:13;;;;;;;9.60;4.10;;;;;;;20.48;100.00;98628.92;271084;1280;22189;-84
2023/08/26 17:26:15;;;;;;;6.20;4.40;;;;;;;20.44;100.00;98622.77;271091;1280;23509;-87
2023/08/26 17:32:16;;;;;;;4.50;3.40;;;;;;;20.41;100.00;98623.86;270972;1280;22456;-84
2023/08/26 17:38:18;;;;;;;4.70;3.80;;;;;;;20.39;100.00;98632.57;270814;1280;22198;-84
2023/08/26 17:44:20;;;;;;;6.20;3.60;;;;;;;20.34;100.00;98635.98;270388;1280;22392;-85
2023/08/26 17:50:23;;;;;;;10.60;3.50;;;;;;;20.29;100.00;98638.15;270660;1280;22204;-84
2023/08/26 17:56:25;;;;;;;5.50;3.60;;;;;;;20.23;100.00;98635.41;270498;1280;22187;-85
2023/08/26 18:02:27;;;;;;;7.20;3.60;;;;;;;20.15;100.00;98638.36;270625;1280;22261;-84
2023/08/26 18:08:28;;;;;;;6.30;3.60;;;;;;;20.06;100.00;98644.74;270774;1280;23545;-85
2023/08/26 18:14:30;;;;;;;8.80;4.60;;;;;;;20.02;100.00;98641.64;270932;1280;23500;-84
2023/08/26 18:20:32;;;;;;;6.60;4.80;;;;;;;19.86;100.00;98639.45;271216;1273;23027;-84
2023/08/26 18:27:00;;;;;;;10.10;8.10;;;;;;;19.79;100.00;98650.86;271181;1280;22351;-85
2023/08/26 18:33:03;;;;;;;10.80;8.70;;;;;;;19.66;100.00;98656.41;270766;1280;312714;-84
2023/08/26 18:39:05;;;;;;;14.00;9.40;;;;;;;19.63;100.00;98651.98;271180;1280;22201;-85
2023/08/26 18:45:08;;;;;;;12.30;8.40;;;;;;;19.62;100.00;98649.33;271176;1280;23083;-85
2023/08/26 18:51:10;;;;;;;11.20;7.30;;;;;;;19.63;100.00;98644.31;271234;1280;22287;-86
2023/08/26 18:57:13;;;;;;;17.30;6.30;;;;;;;19.65;100.00;98645.83;270855;1280;22383;-84
2023/08/26 19:03:16;;;;;;;13.80;8.70;;;;;;;19.58;100.00;98642.09;270902;1280;22360;-85
2023/08/26 19:09:20;;;;;;;10.90;8.30;;;;;;;19.45;100.00;98653.66;270803;1280;22424;-88
2023/08/26 19:15:23;;;;;;;11.60;7.20;;;;;;;19.28;100.00;98644.38;271145;1280;22955;-84
2023/08/26 19:21:25;;;;;;;10.70;7.70;;;;;;;19.17;100.00;98646.60;271321;1271;22492;-84
2023/08/26 19:27:26;;;;;;;21.10;13.50;;;;;;;19.12;100.00;98647.06;271032;1280;22478;-84
2023/08/26 19:33:28;;;;;;;24.80;14.20;;;;;;;19.07;100.00;98649.27;270594;1280;23529;-84
2023/08/26 19:39:30;;;;;;;25.20;14.30;;;;;;;19.02;100.00;98648.08;270624;1280;23554;-84
2023/08/26 19:45:32;;;;;;;21.70;13.30;;;;;;;18.96;100.00;98646.90;270627;1279;22307;-89
2023/08/26 19:51:41;;;;;;;28.10;16.00;;;;;;;18.87;100.00;98648.27;270582;1274;22356;-88
2023/08/26 19:57:43;;;;;;;26.60;15.50;;;;;;;18.80;100.00;98642.98;270672;1280;22388;-84
2023/08/26 20:03:45;;;;;;;23.00;13.10;;;;;;;18.79;100.00;98623.92;270689;1279;22817;-84
2023/08/26 20:09:47;;;;;;;17.60;11.50;;;;;;;18.69;100.00;98597.40;270790;1280;23462;-83
2023/08/26 20:16:14;;;;;;;20.70;10.10;;;;;;;18.66;100.00;98593.84;270619;1280;23200;-85
2023/08/26 20:22:17;;;;;;;11.60;7.30;;;;;;;18.60;100.00;98611.84;270471;1280;22078;-88
2023/08/26 20:28:22;;;;;;;9.40;6.40;;;;;;;18.53;100.00;98622.95;270708;1280;22262;-84
2023/08/26 20:34:23;;;;;;;8.70;6.20;;;;;;;18.53;100.00;98631.20;270417;1276;22961;-88
2023/08/26 20:40:26;;;;;;;10.70;6.10;;;;;;;18.53;100.00;98641.89;270634;1277;23747;-86
2023/08/26 20:46:30;;;;;;;9.60;6.50;;;;;;;18.42;100.00;98622.36;270667;1277;22404;-89
2023/08/26 20:52:34;;;;;;;18.80;8.20;;;;;;;18.35;100.00;98621.73;270856;1280;23463;-88
2023/08/26 20:58:36;;;;;;;14.40;7.90;;;;;;;18.40;100.00;98637.69;270784;1280;22414;-84
2023/08/26 21:05:04;;;;;;;14.20;7.80;;;;;;;18.43;100.00;98622.18;270687;1279;23578;-85
2023/08/26 21:11:06;;;;;;;15.50;7.80;;;;;;;18.35;100.00;98587.45;270824;1279;22382;-84
2023/08/26 21:17:07;;;;;;;15.10;7.30;;;;;;;18.37;100.00;98600.08;270997;1280;22269;-84
2023/08/26 21:23:11;;;;;;;10.10;6.90;;;;;;;18.39;100.00;98644.70;270971;1279;22406;-84
2023/08/26 21:29:13;;;;;;;11.60;6.00;;;;;;;18.41;100.00;98633.58;270873;1280;23573;-84
2023/08/26 21:35:16;;;;;;;13.50;6.70;;;;;;;18.40;100.00;98617.05;270727;1279;23149;-85
2023/08/26 21:41:18;;;;;;;10.20;6.10;;;;;;;18.42;100.00;98672.09;270882;1280;22158;-86
2023/08/26 21:47:20;;;;;;;19.80;7.00;;;;;;;18.46;100.00;98658.38;270876;1280;22192;-83
2023/08/26 21:53:23;;;;;;;18.30;6.80;;;;;;;18.50;100.00;98621.05;270729;1281;22994;-86
2023/08/26 21:59:25;;;;;;;9.70;5.70;;;;;;;18.52;100.00;98588.71;270999;1280;22788;-85
2023/08/26 22:05:31;;;;;;;13.00;6.40;;;;;;;18.50;100.00;98560.88;269973;1280;22575;-83
2023/08/26 22:11:33;;;;;;;14.10;6.50;;;;;;;18.53;100.00;98554.54;271045;1280;22216;-81
2023/08/26 22:17:35;;;;;;;12.50;6.00;;;;;;;18.57;100.00;98531.54;271182;1280;22258;-87
2023/08/26 22:23:39;;;;;;;13.40;5.80;;;;;;;18.67;100.00;98520.06;271100;1280;22346;-84
2023/08/26 22:29:41;;;;;;;11.40;5.40;;;;;;;18.77;100.00;98531.98;271079;1280;23102;-84
2023/08/26 22:35:45;;;;;;;10.60;6.00;;;;;;;18.76;100.00;98529.97;271177;1280;22393;-84
2023/08/26 22:41:51;;;;;;;9.40;6.60;;;;;;;18.74;100.00;98494.52;271118;1280;23065;-90
2023/08/26 22:47:53;;;;;;;12.20;7.40;;;;;;;18.77;100.00;98477.64;270967;1280;22272;-83
2023/08/26 22:53:55;;;;;;;10.70;7.30;;;;;;;18.77;100.00;98437.55;271161;1280;23463;-85
2023/08/26 22:59:56;;;;;;;10.80;7.50;;;;;;;18.68;100.00;98397.10;271183;1281;23191;-85
2023/08/26 23:06:00;;;;;;;10.50;6.70;;;;;;;18.66;100.00;98394.08;271248;1267;23448;-84
2023/08/26 23:12:04;;;;;;;12.80;6.80;;;;;;;18.66;100.00;98432.98;271297;1280;22426;-85
2023/08/26 23:18:06;;;;;;;10.80;6.20;;;;;;;18.69;100.00;98484.30;270309;1280;22556;-86
2023/08/26 23:24:33;;;;;;;10.10;5.80;;;;;;;18.72;100.00;98632.73;270473;1280;22393;-82
2023/08/26 23:30:35;;;;;;;;;;;;;;;18.73;100.00;98839.46;269795;1280;22535;-86
2023/08/26 23:36:37;;;;;;;7.50;2.20;;;;;;;18.63;100.00;98839.16;270986;1279;22393;-84
2023/08/26 23:42:39;;;;;;;6.40;2.50;;;;;;;18.33;100.00;98746.31;271253;1270;23055;-82
2023/08/26 23:48:41;;;;;;;4.20;1.60;;;;;;;18.18;100.00;98679.58;271283;1280;22205;-88
2023/08/26 23:54:42;;;;;;;4.70;1.10;;;;;;;18.06;100.00;98644.63;271251;1280;23208;-82
